Time;durP1;ratioP1;P1;durP2;ratioP2;P2;SDS_P1;SDS_P2;PMS_P1;PMS_P2;Temp;Humidity;BMP_temperature;BMP_pressure;BME280_temperature;BME280_humidity;BME280_pressure;Samples;Min_cycle;Max_cycle;Signal;HPM_P1;HPM_P2
2023/01/25 00:00:43;;;;;;;;;;;3.60;99.90;;;;;;5060827;28;20273;-69
2023/01/25 00:03:08;;;;;;;;;;;3.60;99.90;;;;;;5079480;28;19991;-68
2023/01/25 00:05:34;;;;;;;;;;;3.50;99.90;;;;;;5064663;28;20258;-68
2023/01/25 00:07:59;;;;;;;;;;;3.50;99.90;;;;;;5041927;28;19912;-68
2023/01/25 00:10:25;;;;;;;;;;;3.60;99.90;;;;;;5039934;28;19916;-67
2023/01/25 00:12:50;;;;;;;;;;;3.60;99.90;;;;;;5038866;28;20111;-67
2023/01/25 00:15:16;;;;;;;;;;;3.70;99.90;;;;;;5059280;28;19968;-69
2023/01/25 00:17:41;;;;;;;;;;;3.60;99.90;;;;;;5058766;28;19913;-68
2023/01/25 00:20:07;;;;;;;;;;;3.70;99.90;;;;;;5058798;28;19958;-68
2023/01/25 00:22:33;;;;;;;;;;;3.70;99.90;;;;;;5038721;28;20369;-68
2023/01/25 00:24:58;;;;;;;;;;;3.70;99.90;;;;;;5056652;28;19916;-69
2023/01/25 00:27:23;;;;;;;;;;;3.70;99.90;;;;;;5057089;28;19991;-67
2023/01/25 00:41:28;;;;;;;;;;;3.80;99.90;;;;;;5059942;28;19962;-68
2023/01/25 00:43:53;;;;;;;;;;;3.70;99.90;;;;;;5059865;28;20386;-68
2023/01/25 00:46:19;;;;;;;;;;;3.80;99.90;;;;;;5038096;28;20339;-67
2023/01/25 00:48:44;;;;;;;;;;;3.80;99.90;;;;;;5055947;28;19917;-68
2023/01/25 00:51:10;;;;;;;;;;;3.70;99.90;;;;;;5039943;28;19917;-67
2023/01/25 00:53:36;;;;;;;;;;;3.60;99.90;;;;;;5075832;28;19915;-68
2023/01/25 00:56:02;;;;;;;;;;;3.50;99.90;;;;;;5033744;28;20361;-68
2023/01/25 00:58:27;;;;;;;;;;;3.60;99.90;;;;;;5035734;28;20024;-68
2023/01/25 01:00:53;;;;;;;;;;;3.60;99.90;;;;;;5035866;28;19917;-67
2023/01/25 01:03:19;;;;;;;;;;;3.60;99.90;;;;;;5036767;28;19910;-68
2023/01/25 01:05:44;;;;;;;;;;;3.50;99.90;;;;;;5035002;28;20366;-68
2023/01/25 01:08:29;;;;;;;;;;;3.40;99.90;;;;;;5036247;28;19916;-68
2023/01/25 01:10:58;;;;;;;;;;;3.50;99.90;;;;;;5017522;28;19909;-67
2023/01/25 01:20:07;;;;;;;;;;;3.50;99.90;;;;;;5036041;28;19928;-68
2023/01/25 01:22:32;;;;;;;;;;;3.60;99.90;;;;;;5018689;28;19909;-68
2023/01/25 01:24:58;;;;;;;;;;;3.50;99.90;;;;;;5048890;28;21020;-67
2023/01/25 01:27:23;;;;;;;;;;;3.50;99.90;;;;;;5059582;28;19909;-69
2023/01/25 01:29:49;;;;;;;;;;;3.50;99.90;;;;;;5057294;28;19908;-68
2023/01/25 01:32:14;;;;;;;;;;;3.50;99.90;;;;;;5074832;28;19917;-69
2023/01/25 01:34:40;;;;;;;;;;;3.60;99.90;;;;;;5074965;28;20003;-68
2023/01/25 01:37:05;;;;;;;;;;;3.60;99.90;;;;;;5074963;28;19908;-68
2023/01/25 01:39:31;;;;;;;;;;;3.60;99.90;;;;;;5056809;28;19917;-68
2023/01/25 01:41:56;;;;;;;;;;;3.60;99.90;;;;;;5057196;28;19914;-68
2023/01/25 01:44:40;;;;;;;;;;;3.40;99.90;;;;;;5074831;28;19931;-68
2023/01/25 01:47:07;;;;;;;;;;;3.40;99.90;;;;;;5078434;28;19908;-68
2023/01/25 01:49:33;;;;;;;;;;;3.40;99.90;;;;;;5075963;28;20383;-68
2023/01/25 01:52:04;;;;;;;;;;;3.40;99.90;;;;;;5075244;28;19908;-67
2023/01/25 01:54:35;;;;;;;;;;;3.40;99.90;;;;;;5074649;28;19963;-67
2023/01/25 01:57:06;;;;;;;;;;;3.50;99.90;;;;;;5056708;28;20369;-67
2023/01/25 01:59:39;;;;;;;;;;;3.50;99.90;;;;;;5056819;28;19938;-68
2023/01/25 02:02:05;;;;;;;;;;;3.50;99.90;;;;;;5057432;28;20007;-69
2023/01/25 02:04:31;;;;;;;;;;;3.50;99.90;;;;;;5076003;28;20478;-68
2023/01/25 02:07:13;;;;;;;;;;;3.50;99.90;;;;;;5059278;28;19908;-68
2023/01/25 02:09:39;;;;;;;;;;;3.50;99.90;;;;;;5078490;28;19908;-69
2023/01/25 02:12:06;;;;;;;;;;;3.50;99.90;;;;;;5075492;28;19923;-68
2023/01/25 02:14:32;;;;;;;;;;;3.40;99.90;;;;;;5074461;28;19912;-68
2023/01/25 02:16:57;;;;;;;;;;;3.30;99.90;;;;;;5075641;28;20388;-68
2023/01/25 02:19:32;;;;;;;;;;;3.30;99.90;;;;;;5075144;28;20318;-67
2023/01/25 02:21:58;;;;;;;;;;;3.40;99.90;;;;;;5074274;28;19962;-68
2023/01/25 02:24:28;;;;;;;;;;;3.40;99.90;;;;;;5074350;28;20032;-67
2023/01/25 02:26:53;;;;;;;;;;;3.40;99.90;;;;;;5074036;28;19909;-67
2023/01/25 02:29:21;;;;;;;;;;;3.40;99.90;;;;;;5074451;28;19909;-67
2023/01/25 02:31:48;;;;;;;;;;;3.40;99.90;;;;;;5043291;28;19917;-68
2023/01/25 02:34:13;;;;;;;;;;;3.30;99.90;;;;;;5058291;28;19909;-68
2023/01/25 02:36:39;;;;;;;;;;;3.30;99.90;;;;;;5057405;28;19920;-69
2023/01/25 02:39:07;;;;;;;;;;;3.40;99.90;;;;;;5057398;28;20015;-68
2023/01/25 02:41:37;;;;;;;;;;;3.40;99.90;;;;;;5054915;28;19958;-68
2023/01/25 02:44:05;;;;;;;;;;;3.40;99.90;;;;;;5054101;28;19959;-69
2023/01/25 02:46:31;;;;;;;;;;;3.40;99.90;;;;;;5054130;28;19948;-67
2023/01/25 02:48:58;;;;;;;;;;;3.40;99.90;;;;;;5035846;28;20362;-68
2023/01/25 02:51:24;;;;;;;;;;;3.50;99.90;;;;;;5036270;28;19909;-68
2023/01/25 02:53:50;;;;;;;;;;;3.50;99.90;;;;;;5054280;28;19909;-69
2023/01/25 02:56:15;;;;;;;;;;;3.50;99.90;;;;;;5053785;28;19971;-68
2023/01/25 02:58:41;;;;;;;;;;;3.40;99.90;;;;;;5036323;28;19965;-67
2023/01/25 03:01:06;;;;;;;;;;;3.40;99.90;;;;;;5058983;28;19909;-67
2023/01/25 03:03:32;;;;;;;;;;;3.40;99.90;;;;;;5058439;28;20328;-67
2023/01/25 03:05:57;;;;;;;;;;;3.40;99.90;;;;;;5055433;28;20004;-69
2023/01/25 03:08:23;;;;;;;;;;;3.30;99.90;;;;;;5054156;28;19909;-68
2023/01/25 03:10:48;;;;;;;;;;;3.30;99.90;;;;;;5054225;28;19909;-67
2023/01/25 03:13:14;;;;;;;;;;;3.40;99.90;;;;;;5054176;28;19909;-68
2023/01/25 03:15:39;;;;;;;;;;;3.40;99.90;;;;;;5036598;28;19909;-68
2023/01/25 03:18:05;;;;;;;;;;;3.40;99.90;;;;;;5054219;28;19912;-67
2023/01/25 03:20:30;;;;;;;;;;;3.40;99.90;;;;;;5054294;28;19912;-67
2023/01/25 03:22:55;;;;;;;;;;;3.40;99.90;;;;;;5036135;28;19909;-68
2023/01/25 03:25:21;;;;;;;;;;;3.40;99.90;;;;;;5053822;28;19913;-68
2023/01/25 03:27:47;;;;;;;;;;;3.30;99.90;;;;;;5059218;28;20023;-66
2023/01/25 03:30:12;;;;;;;;;;;3.40;99.90;;;;;;5040476;28;19909;-67
2023/01/25 03:32:38;;;;;;;;;;;3.30;99.90;;;;;;5057905;28;19960;-67
2023/01/25 03:35:03;;;;;;;;;;;3.40;99.90;;;;;;5039682;28;20003;-68
2023/01/25 03:37:30;;;;;;;;;;;3.30;99.90;;;;;;5057873;28;20074;-66
2023/01/25 03:39:56;;;;;;;;;;;3.30;99.90;;;;;;5057583;28;19919;-69
2023/01/25 03:42:22;;;;;;;;;;;3.20;99.90;;;;;;5057998;28;19959;-68
2023/01/25 03:44:47;;;;;;;;;;;3.20;99.90;;;;;;5057613;28;19909;-68
2023/01/25 03:47:13;;;;;;;;;;;3.20;99.90;;;;;;5057520;28;19963;-67
2023/01/25 03:49:38;;;;;;;;;;;3.20;99.90;;;;;;5039834;28;20262;-68
2023/01/25 03:52:04;;;;;;;;;;;3.20;99.90;;;;;;5057716;28;19909;-68
2023/01/25 03:54:29;;;;;;;;;;;3.20;99.90;;;;;;5059321;28;20273;-68
2023/01/25 03:56:55;;;;;;;;;;;3.20;99.90;;;;;;5077806;28;19951;-68
2023/01/25 03:59:20;;;;;;;;;;;3.30;99.90;;;;;;5077460;28;19917;-68
2023/01/25 04:01:46;;;;;;;;;;;3.20;99.90;;;;;;5077753;28;19908;-68
2023/01/25 04:04:11;;;;;;;;;;;3.20;99.90;;;;;;5060088;28;19913;-67
2023/01/25 04:06:37;;;;;;;;;;;3.20;99.90;;;;;;5077752;28;19931;-68
2023/01/25 04:09:03;;;;;;;;;;;3.30;99.90;;;;;;5077116;28;19914;-67
2023/01/25 04:11:28;;;;;;;;;;;3.20;99.90;;;;;;5059301;28;19958;-67
2023/01/25 04:13:53;;;;;;;;;;;3.30;99.90;;;;;;5077838;28;19912;-68
2023/01/25 04:16:19;;;;;;;;;;;3.20;99.90;;;;;;5059713;28;19994;-68
2023/01/25 04:18:44;;;;;;;;;;;3.20;99.90;;;;;;5077741;28;19916;-68
2023/01/25 04:21:10;;;;;;;;;;;3.20;99.90;;;;;;5077981;28;19908;-67
2023/01/25 04:23:35;;;;;;;;;;;3.10;99.90;;;;;;5076940;28;19915;-67
2023/01/25 04:26:04;;;;;;;;;;;3.10;99.90;;;;;;5058887;28;19912;-68
2023/01/25 04:28:29;;;;;;;;;;;3.20;99.90;;;;;;5059092;28;19947;-68
2023/01/25 04:30:55;;;;;;;;;;;3.20;99.90;;;;;;5077407;28;19915;-68
2023/01/25 04:33:21;;;;;;;;;;;3.20;99.90;;;;;;5077139;28;19924;-68
2023/01/25 04:35:46;;;;;;;;;;;3.20;99.90;;;;;;5062292;28;19931;-68
2023/01/25 04:38:12;;;;;;;;;;;3.20;99.90;;;;;;5061855;28;19913;-67
2023/01/25 04:40:38;;;;;;;;;;;3.10;99.90;;;;;;5057316;28;20350;-67
2023/01/25 04:43:03;;;;;;;;;;;3.20;99.90;;;;;;5057045;28;20340;-68
2023/01/25 04:45:28;;;;;;;;;;;3.10;99.90;;;;;;5057051;28;19970;-68
2023/01/25 04:47:56;;;;;;;;;;;3.10;99.90;;;;;;5055962;28;19991;-68
2023/01/25 04:50:21;;;;;;;;;;;3.20;99.90;;;;;;5057112;28;19958;-68
2023/01/25 04:52:46;;;;;;;;;;;3.20;99.90;;;;;;5058622;28;19909;-68
2023/01/25 04:55:12;;;;;;;;;;;3.30;99.90;;;;;;5042216;28;19912;-68
2023/01/25 04:57:37;;;;;;;;;;;3.20;99.90;;;;;;5059261;28;19999;-68
2023/01/25 05:00:03;;;;;;;;;;;3.30;99.90;;;;;;5057708;28;19917;-68
2023/01/25 05:02:29;;;;;;;;;;;3.30;99.90;;;;;;5056556;28;19915;-67
2023/01/25 05:04:54;;;;;;;;;;;3.30;99.90;;;;;;5056221;28;19920;-67
2023/01/25 05:07:19;;;;;;;;;;;3.20;99.90;;;;;;5053939;28;20004;-69
2023/01/25 05:09:45;;;;;;;;;;;3.20;99.90;;;;;;5055730;28;19971;-69
2023/01/25 05:12:12;;;;;;;;;;;3.10;99.90;;;;;;5055932;28;19909;-68
2023/01/25 05:14:38;;;;;;;;;;;3.10;99.90;;;;;;5055577;28;20374;-67
2023/01/25 05:17:06;;;;;;;;;;;3.00;99.90;;;;;;5037807;28;19920;-68
2023/01/25 05:19:32;;;;;;;;;;;3.00;99.90;;;;;;5055096;28;19916;-68
2023/01/25 05:21:57;;;;;;;;;;;3.00;99.90;;;;;;5057714;28;19991;-67
2023/01/25 05:24:27;;;;;;;;;;;3.00;99.90;;;;;;5075721;28;19909;-68
2023/01/25 05:26:59;;;;;;;;;;;3.00;99.90;;;;;;5077589;28;19909;-68
2023/01/25 05:29:25;;;;;;;;;;;2.90;99.90;;;;;;5077960;28;19908;-69
2023/01/25 05:31:50;;;;;;;;;;;2.80;99.90;;;;;;5076274;28;19931;-68
2023/01/25 05:34:16;;;;;;;;;;;2.70;99.90;;;;;;5078293;28;19909;-67
2023/01/25 05:36:41;;;;;;;;;;;2.70;99.90;;;;;;5075602;28;19912;-70
2023/01/25 05:39:07;;;;;;;;;;;2.80;99.90;;;;;;5078412;28;19913;-71
2023/01/25 05:41:32;;;;;;;;;;;2.80;99.90;;;;;;5077022;28;19909;-70
2023/01/25 05:43:58;;;;;;;;;;;2.70;99.90;;;;;;5057938;28;19908;-70
2023/01/25 05:46:25;;;;;;;;;;;2.70;99.90;;;;;;5053788;28;19909;-70
2023/01/25 05:48:51;;;;;;;;;;;2.70;99.90;;;;;;5033950;28;20416;-70
2023/01/25 05:51:16;;;;;;;;;;;2.60;99.90;;;;;;5035357;28;19909;-69
2023/01/25 05:53:42;;;;;;;;;;;2.50;99.90;;;;;;5035632;28;20007;-70
2023/01/25 05:56:09;;;;;;;;;;;2.40;99.90;;;;;;5030939;28;20396;-70
2023/01/25 05:58:35;;;;;;;;;;;2.40;99.90;;;;;;5055376;28;20335;-72
2023/01/25 06:01:01;;;;;;;;;;;2.50;99.90;;;;;;5055345;28;19909;-70
2023/01/25 06:03:26;;;;;;;;;;;2.60;99.90;;;;;;5054792;28;19909;-70
2023/01/25 06:05:55;;;;;;;;;;;2.50;99.90;;;;;;5055216;28;19951;-68
2023/01/25 06:08:21;;;;;;;;;;;2.40;99.90;;;;;;5055600;28;19915;-68
2023/01/25 06:10:46;;;;;;;;;;;2.50;99.90;;;;;;5061868;28;19944;-68
2023/01/25 06:13:11;;;;;;;;;;;2.50;99.90;;;;;;5058659;28;19912;-68
2023/01/25 06:15:37;;;;;;;;;;;2.40;99.90;;;;;;5055423;28;20270;-71
2023/01/25 06:18:02;;;;;;;;;;;2.50;99.90;;;;;;5053304;28;20573;-70
2023/01/25 06:20:28;;;;;;;;;;;2.50;99.90;;;;;;5052160;28;19915;-74
2023/01/25 06:22:53;;;;;;;;;;;2.50;99.90;;;;;;5052173;28;19908;-72
2023/01/25 06:25:19;;;;;;;;;;;2.50;99.90;;;;;;5052854;28;19909;-71
2023/01/25 06:27:44;;;;;;;;;;;2.50;99.90;;;;;;5052901;28;19913;-71
2023/01/25 06:30:10;;;;;;;;;;;2.50;99.90;;;;;;5054522;28;20412;-71
2023/01/25 06:32:35;;;;;;;;;;;2.40;99.90;;;;;;5051811;28;20424;-71
2023/01/25 06:35:01;;;;;;;;;;;2.40;99.90;;;;;;5034600;28;20353;-71
2023/01/25 06:37:26;;;;;;;;;;;2.50;99.90;;;;;;5054219;28;19999;-71
2023/01/25 06:39:52;;;;;;;;;;;2.50;99.90;;;;;;5036009;28;19912;-71
2023/01/25 06:42:17;;;;;;;;;;;2.50;99.90;;;;;;5072941;28;19908;-70
2023/01/25 06:44:43;;;;;;;;;;;2.50;99.90;;;;;;5055869;28;19908;-70
2023/01/25 06:47:08;;;;;;;;;;;2.50;99.90;;;;;;5058642;28;19947;-72
2023/01/25 06:49:34;;;;;;;;;;;2.50;99.90;;;;;;5053457;28;19920;-71
2023/01/25 06:52:02;;;;;;;;;;;2.50;99.90;;;;;;5052695;28;19908;-70
2023/01/25 06:54:28;;;;;;;;;;;2.40;99.90;;;;;;5023307;28;19913;-71
2023/01/25 06:56:53;;;;;;;;;;;2.40;99.90;;;;;;5054401;28;19915;-71
2023/01/25 06:59:19;;;;;;;;;;;2.40;99.90;;;;;;5036179;28;19952;-71
2023/01/25 07:01:44;;;;;;;;;;;2.40;99.90;;;;;;5053895;28;20300;-72
2023/01/25 07:04:13;;;;;;;;;;;2.40;99.90;;;;;;5053348;28;19913;-71
2023/01/25 07:06:38;;;;;;;;;;;2.40;99.90;;;;;;5033728;28;19909;-71
2023/01/25 07:09:05;;;;;;;;;;;2.50;99.90;;;;;;5057931;28;19909;-71
2023/01/25 07:11:31;;;;;;;;;;;2.50;99.90;;;;;;5052757;28;20318;-71
2023/01/25 07:13:57;;;;;;;;;;;2.40;99.90;;;;;;5054868;28;19976;-70
2023/01/25 07:16:22;;;;;;;;;;;2.50;99.90;;;;;;5035846;28;19909;-72
2023/01/25 07:18:47;;;;;;;;;;;2.50;99.90;;;;;;5053690;28;20389;-73
2023/01/25 07:21:14;;;;;;;;;;;2.50;99.90;;;;;;5052823;28;19916;-71
2023/01/25 07:23:40;;;;;;;;;;;2.60;99.90;;;;;;5035110;28;19909;-70
2023/01/25 07:26:13;;;;;;;;;;;2.60;99.90;;;;;;5038891;28;20274;-71
2023/01/25 07:28:38;;;;;;;;;;;2.60;99.90;;;;;;5043015;28;19935;-72
2023/01/25 07:31:05;;;;;;;;;;;2.50;99.90;;;;;;5036607;28;19909;-73
2023/01/25 07:33:31;;;;;;;;;;;2.50;99.90;;;;;;5034412;28;19916;-71
2023/01/25 07:36:04;;;;;;;;;;;2.60;99.90;;;;;;5053323;28;20365;-72
2023/01/25 07:38:29;;;;;;;;;;;2.50;99.90;;;;;;5034739;28;19920;-72
2023/01/25 07:40:55;;;;;;;;;;;2.50;99.90;;;;;;5053502;28;20285;-72
2023/01/25 07:43:20;;;;;;;;;;;2.50;99.90;;;;;;5053570;28;19916;-70
2023/01/25 07:45:48;;;;;;;;;;;2.60;99.90;;;;;;5037055;28;19913;-72
2023/01/25 07:48:13;;;;;;;;;;;2.60;99.90;;;;;;5055775;28;19976;-72
2023/01/25 07:50:40;;;;;;;;;;;2.70;99.90;;;;;;5054613;28;19909;-71
2023/01/25 07:53:06;;;;;;;;;;;2.70;99.90;;;;;;5036778;28;19909;-73
2023/01/25 07:55:31;;;;;;;;;;;2.70;99.90;;;;;;5038708;28;19909;-71
2023/01/25 07:57:57;;;;;;;;;;;2.70;99.90;;;;;;5056964;28;19909;-72
2023/01/25 08:00:22;;;;;;;;;;;2.70;99.90;;;;;;5039380;28;19909;-72
2023/01/25 08:02:51;;;;;;;;;;;2.80;99.90;;;;;;5039062;28;19908;-72
2023/01/25 08:05:17;;;;;;;;;;;2.80;99.90;;;;;;5053220;28;19917;-72
2023/01/25 08:07:42;;;;;;;;;;;2.80;99.90;;;;;;5056081;28;19908;-73
2023/01/25 08:10:08;;;;;;;;;;;2.70;99.90;;;;;;5055421;28;20262;-72
2023/01/25 08:12:34;;;;;;;;;;;2.70;99.90;;;;;;5056992;28;19919;-71
2023/01/25 08:15:00;;;;;;;;;;;2.80;99.90;;;;;;5041708;28;19909;-72
2023/01/25 08:17:30;;;;;;;;;;;2.80;99.90;;;;;;5039582;28;19960;-71
2023/01/25 08:19:58;;;;;;;;;;;2.80;99.90;;;;;;5056939;28;19912;-73
2023/01/25 08:22:25;;;;;;;;;;;2.90;99.90;;;;;;5056527;28;19967;-73
2023/01/25 08:24:50;;;;;;;;;;;2.90;99.90;;;;;;5038349;28;19909;-72
2023/01/25 08:27:16;;;;;;;;;;;2.90;99.90;;;;;;5038305;28;19915;-72
2023/01/25 08:29:41;;;;;;;;;;;3.00;99.90;;;;;;5055155;28;19919;-73
2023/01/25 08:32:06;;;;;;;;;;;3.00;99.90;;;;;;5055763;28;19920;-71
2023/01/25 08:34:32;;;;;;;;;;;3.00;99.90;;;;;;5096633;22;19924;-69
2023/01/25 08:36:58;;;;;;;;;;;3.00;99.90;;;;;;5058191;28;20272;-69
2023/01/25 08:39:24;;;;;;;;;;;3.00;99.90;;;;;;5077607;28;19920;-70
2023/01/25 08:41:49;;;;;;;;;;;3.10;99.90;;;;;;5077388;28;19908;-69
2023/01/25 08:44:15;;;;;;;;;;;3.10;99.90;;;;;;5034648;28;19908;-69
2023/01/25 08:46:40;;;;;;;;;;;3.10;99.90;;;;;;5058444;28;19908;-71
2023/01/25 08:49:06;;;;;;;;;;;3.00;99.90;;;;;;5058701;28;20033;-70
2023/01/25 08:51:32;;;;;;;;;;;3.10;99.90;;;;;;5058599;28;20357;-69
2023/01/25 08:54:07;;;;;;;;;;;3.10;99.90;;;;;;5076553;28;19909;-69
2023/01/25 08:56:35;;;;;;;;;;;3.20;99.90;;;;;;5078118;28;19932;-70
2023/01/25 08:59:00;;;;;;;;;;;3.10;99.90;;;;;;5077768;28;19912;-70
2023/01/25 09:01:26;;;;;;;;;;;3.20;99.90;;;;;;5077879;28;19915;-71
2023/01/25 09:03:52;;;;;;;;;;;3.00;99.90;;;;;;5076076;28;19908;-70
2023/01/25 09:06:19;;;;;;;;;;;3.00;99.90;;;;;;5043796;28;20377;-70
2023/01/25 09:08:44;;;;;;;;;;;3.10;99.90;;;;;;5055981;28;19909;-70
2023/01/25 09:11:11;;;;;;;;;;;3.10;99.90;;;;;;5054256;28;19916;-70
2023/01/25 09:13:37;;;;;;;;;;;3.10;99.90;;;;;;5055484;28;19909;-69
2023/01/25 09:16:07;;;;;;;;;;;3.20;99.90;;;;;;5055494;28;20357;-70
2023/01/25 09:18:33;;;;;;;;;;;3.20;99.90;;;;;;5056153;28;19920;-70
2023/01/25 09:21:04;;;;;;;;;;;3.20;99.90;;;;;;5038107;28;19913;-71
2023/01/25 09:23:29;;;;;;;;;;;3.20;99.90;;;;;;5055577;28;19944;-71
2023/01/25 09:25:55;;;;;;;;;;;3.30;99.90;;;;;;5037583;28;20285;-71
2023/01/25 09:28:21;;;;;;;;;;;3.40;99.90;;;;;;5055433;28;19916;-70
2023/01/25 09:30:52;;;;;;;;;;;3.30;99.90;;;;;;5055287;28;20361;-71
2023/01/25 09:33:18;;;;;;;;;;;3.30;99.90;;;;;;5037296;28;19908;-71
2023/01/25 09:35:47;;;;;;;;;;;3.30;99.90;;;;;;5063830;28;19920;-70
2023/01/25 09:38:13;;;;;;;;;;;3.30;99.90;;;;;;5057142;28;19916;-71
2023/01/25 09:40:41;;;;;;;;;;;3.40;99.90;;;;;;5075116;28;19918;-71
2023/01/25 09:43:26;;;;;;;;;;;3.40;99.90;;;;;;5075191;28;19908;-70
2023/01/25 09:45:52;;;;;;;;;;;3.40;99.90;;;;;;5007180;28;19916;-71
2023/01/25 09:48:47;;;;;;;;;;;3.40;99.90;;;;;;5057163;28;19909;-70
2023/01/25 09:51:15;;;;;;;;;;;3.50;99.90;;;;;;4973842;28;19917;-70
2023/01/25 09:53:48;;;;;;;;;;;3.50;99.90;;;;;;4974528;28;19910;-71
2023/01/25 09:56:21;;;;;;;;;;;3.30;99.90;;;;;;4974269;28;19910;-70
2023/01/25 09:58:49;;;;;;;;;;;3.30;99.90;;;;;;4973121;28;20359;-70
2023/01/25 10:01:17;;;;;;;;;;;3.40;99.90;;;;;;4974335;28;20395;-71
2023/01/25 10:03:43;;;;;;;;;;;3.50;99.90;;;;;;4958712;28;20330;-71
2023/01/25 10:06:09;;;;;;;;;;;3.50;99.90;;;;;;4957956;28;19914;-71
2023/01/25 10:08:39;;;;;;;;;;;3.60;99.90;;;;;;4958290;28;19914;-70
2023/01/25 10:11:10;;;;;;;;;;;3.50;99.90;;;;;;4957981;28;19910;-71
2023/01/25 10:13:36;;;;;;;;;;;3.60;99.90;;;;;;4974234;28;19916;-71
2023/01/25 10:16:04;;;;;;;;;;;3.60;99.90;;;;;;4957412;28;20001;-70
2023/01/25 10:18:33;;;;;;;;;;;3.50;99.90;;;;;;4957409;28;19914;-71
2023/01/25 10:21:17;;;;;;;;;;;3.50;99.90;;;;;;4957238;28;20259;-70
2023/01/25 10:23:47;;;;;;;;;;;3.40;99.90;;;;;;4972972;28;20218;-70
2023/01/25 10:26:33;;;;;;;;;;;3.40;99.90;;;;;;4957481;28;19910;-70
2023/01/25 10:29:01;;;;;;;;;;;3.40;99.90;;;;;;5055922;28;19912;-70
2023/01/25 10:31:41;;;;;;;;;;;3.50;99.90;;;;;;5056128;28;19908;-70
2023/01/25 10:34:19;;;;;;;;;;;3.60;99.90;;;;;;5074063;28;20315;-70
2023/01/25 10:36:46;;;;;;;;;;;3.60;99.90;;;;;;5074109;28;19908;-72
2023/01/25 10:39:11;;;;;;;;;;;3.70;99.90;;;;;;5074506;28;20288;-71
2023/01/25 10:41:39;;;;;;;;;;;3.70;99.90;;;;;;5056811;28;19909;-70
2023/01/25 10:44:22;;;;;;;;;;;3.70;99.90;;;;;;5074383;28;19916;-71
2023/01/25 10:46:50;;;;;;;;;;;3.60;99.90;;;;;;5056546;28;20361;-71
2023/01/25 10:49:23;;;;;;;;;;;3.70;99.90;;;;;;5074535;28;19916;-70
2023/01/25 10:51:49;;;;;;;;;;;3.70;99.90;;;;;;5056300;28;19921;-71
2023/01/25 10:54:15;;;;;;;;;;;3.70;99.90;;;;;;5056541;28;19958;-71
2023/01/25 10:56:42;;;;;;;;;;;3.60;99.90;;;;;;5056959;28;20003;-70
2023/01/25 10:59:19;;;;;;;;;;;3.70;99.90;;;;;;5074645;28;19912;-70
2023/01/25 11:01:44;;;;;;;;;;;3.60;99.90;;;;;;5056493;28;19924;-71
2023/01/25 11:04:27;;;;;;;;;;;3.60;99.90;;;;;;5056202;28;19915;-71
2023/01/25 11:06:53;;;;;;;;;;;3.70;99.90;;;;;;5073903;28;19940;-70
2023/01/25 11:09:21;;;;;;;;;;;3.70;99.90;;;;;;5055797;28;19964;-70
2023/01/25 11:11:55;;;;;;;;;;;3.70;99.90;;;;;;5056428;28;20300;-70
2023/01/25 11:14:21;;;;;;;;;;;3.80;99.90;;;;;;5073808;28;19912;-70
2023/01/25 11:16:47;;;;;;;;;;;3.70;99.90;;;;;;5056421;28;19908;-70
2023/01/25 11:19:28;;;;;;;;;;;3.70;99.90;;;;;;5056694;28;19912;-70
2023/01/25 11:21:54;;;;;;;;;;;3.70;99.90;;;;;;5074260;28;19915;-70
2023/01/25 11:24:24;;;;;;;;;;;3.70;99.90;;;;;;5055675;28;19966;-71
2023/01/25 11:26:49;;;;;;;;;;;3.60;99.90;;;;;;5073611;28;19908;-70
2023/01/25 11:29:15;;;;;;;;;;;3.60;99.90;;;;;;5055452;28;19919;-70
2023/01/25 11:31:44;;;;;;;;;;;3.50;99.90;;;;;;5039118;28;20357;-70
2023/01/25 11:34:12;;;;;;;;;;;3.50;99.90;;;;;;5035758;28;19960;-70
2023/01/25 11:36:49;;;;;;;;;;;3.50;99.90;;;;;;5035621;28;20366;-71
2023/01/25 11:39:15;;;;;;;;;;;3.50;99.90;;;;;;5053503;28;19958;-71
2023/01/25 11:41:52;;;;;;;;;;;3.60;99.90;;;;;;5053396;28;19908;-70
2023/01/25 11:44:25;;;;;;;;;;;3.50;99.90;;;;;;5053371;28;19909;-70
2023/01/25 11:47:00;;;;;;;;;;;3.60;99.90;;;;;;5053831;28;19916;-70
2023/01/25 11:49:52;;;;;;;;;;;3.50;99.90;;;;;;5057140;28;20285;-70
2023/01/25 11:52:23;;;;;;;;;;;3.60;99.90;;;;;;5039826;28;19948;-70
2023/01/25 11:54:55;;;;;;;;;;;3.50;99.90;;;;;;5077013;28;19912;-71
2023/01/25 11:57:35;;;;;;;;;;;3.40;99.90;;;;;;5059485;28;19909;-71
2023/01/25 12:00:24;;;;;;;;;;;3.30;99.90;;;;;;5061367;28;19912;-71
2023/01/25 12:03:05;;;;;;;;;;;3.30;99.90;;;;;;5031723;28;19954;-70
2023/01/25 12:05:45;;;;;;;;;;;3.30;99.90;;;;;;5077026;28;19915;-70
2023/01/25 12:08:18;;;;;;;;;;;3.20;99.90;;;;;;5076817;28;19908;-70
2023/01/25 12:11:00;;;;;;;;;;;3.20;99.90;;;;;;5075404;28;19934;-71
2023/01/25 12:13:35;;;;;;;;;;;3.20;99.90;;;;;;5057720;28;19909;-71
2023/01/25 12:16:19;;;;;;;;;;;3.30;99.90;;;;;;5059060;28;19919;-71
2023/01/25 12:18:45;;;;;;;;;;;3.30;99.90;;;;;;5071964;28;20327;-70
2023/01/25 12:21:23;;;;;;;;;;;3.30;99.90;;;;;;5058028;28;19908;-70
2023/01/25 12:24:01;;;;;;;;;;;3.30;99.90;;;;;;5037786;28;20008;-71
2023/01/25 12:26:35;;;;;;;;;;;3.40;99.90;;;;;;5057239;28;20043;-70
2023/01/25 12:29:18;;;;;;;;;;;3.40;99.90;;;;;;5044246;28;20383;-71
2023/01/25 12:31:47;;;;;;;;;;;3.30;99.90;;;;;;5051716;28;19948;-70
2023/01/25 12:34:20;;;;;;;;;;;3.30;99.90;;;;;;5018617;28;20012;-70
2023/01/25 12:36:47;;;;;;;;;;;3.20;99.90;;;;;;5075238;28;19999;-71
2023/01/25 12:39:16;;;;;;;;;;;3.30;99.90;;;;;;5076328;28;19919;-71
2023/01/25 12:41:44;;;;;;;;;;;3.30;99.90;;;;;;5076584;28;19991;-70
2023/01/25 12:44:13;;;;;;;;;;;3.30;99.90;;;;;;5045528;28;19936;-69
2023/01/25 12:46:45;;;;;;;;;;;3.40;99.90;;;;;;5056317;28;19912;-70
2023/01/25 12:49:16;;;;;;;;;;;3.30;99.90;;;;;;5038120;28;20332;-71
2023/01/25 12:51:42;;;;;;;;;;;3.40;99.90;;;;;;5037937;28;19916;-72
2023/01/25 12:54:15;;;;;;;;;;;3.30;99.90;;;;;;5037228;28;19909;-72
2023/01/25 12:56:50;;;;;;;;;;;3.30;99.90;;;;;;5053851;28;19912;-72
2023/01/25 12:59:34;;;;;;;;;;;3.30;99.90;;;;;;5044832;28;19921;-70
2023/01/25 13:02:13;;;;;;;;;;;3.40;99.90;;;;;;5036999;28;19913;-71
2023/01/25 13:04:54;;;;;;;;;;;3.30;99.90;;;;;;5038587;28;19909;-71
2023/01/25 13:07:27;;;;;;;;;;;3.30;99.90;;;;;;5037980;28;19915;-70
2023/01/25 13:09:52;;;;;;;;;;;3.30;99.90;;;;;;5037937;28;20416;-70
2023/01/25 13:12:17;;;;;;;;;;;3.40;99.90;;;;;;5055449;28;19916;-70
2023/01/25 13:14:43;;;;;;;;;;;3.40;99.90;;;;;;5050753;28;19913;-70
2023/01/25 13:17:10;;;;;;;;;;;3.30;99.90;;;;;;5017945;28;20352;-70
2023/01/25 13:19:36;;;;;;;;;;;3.30;99.90;;;;;;5018142;28;19917;-71
2023/01/25 13:22:01;;;;;;;;;;;3.20;99.90;;;;;;5036988;28;19910;-70
2023/01/25 13:24:28;;;;;;;;;;;3.20;99.90;;;;;;5037224;28;19937;-71
2023/01/25 13:26:54;;;;;;;;;;;3.20;99.90;;;;;;5019395;28;19968;-71
2023/01/25 13:29:34;;;;;;;;;;;3.20;99.90;;;;;;5044202;28;19924;-72
2023/01/25 13:32:01;;;;;;;;;;;3.20;99.90;;;;;;5030817;28;20358;-70
2023/01/25 13:34:37;;;;;;;;;;;3.20;99.90;;;;;;5057234;28;19967;-72
2023/01/25 13:37:05;;;;;;;;;;;3.40;99.90;;;;;;5043542;28;20608;-72
2023/01/25 13:39:30;;;;;;;;;;;3.40;99.90;;;;;;5038411;28;20347;-73
2023/01/25 13:42:16;;;;;;;;;;;3.40;99.90;;;;;;5038551;28;19913;-73
2023/01/25 13:44:43;;;;;;;;;;;3.30;99.90;;;;;;5027152;28;19910;-72
2023/01/25 13:47:10;;;;;;;;;;;3.30;99.90;;;;;;5033489;28;20281;-73
2023/01/25 13:49:39;;;;;;;;;;;3.30;99.90;;;;;;5034925;28;20005;-73
2023/01/25 13:52:05;;;;;;;;;;;3.20;99.90;;;;;;5035285;28;20370;-73
2023/01/25 13:54:30;;;;;;;;;;;3.20;99.90;;;;;;5017167;28;20000;-69
2023/01/25 13:57:03;;;;;;;;;;;3.20;99.90;;;;;;5033604;28;20267;-71
2023/01/25 13:59:29;;;;;;;;;;;3.20;99.90;;;;;;5034421;28;20481;-68
2023/01/25 14:01:55;;;;;;;;;;;3.10;99.90;;;;;;5035492;28;19967;-73
2023/01/25 14:04:21;;;;;;;;;;;3.10;99.90;;;;;;5038364;28;20021;-69
2023/01/25 14:06:47;;;;;;;;;;;3.20;99.90;;;;;;5073691;28;19909;-69
2023/01/25 14:09:18;;;;;;;;;;;3.20;99.90;;;;;;5038093;28;20004;-68
2023/01/25 14:11:53;;;;;;;;;;;3.20;99.90;;;;;;5033315;28;19909;-69
2023/01/25 14:14:23;;;;;;;;;;;3.10;99.90;;;;;;5034253;28;19917;-71
2023/01/25 14:16:59;;;;;;;;;;;3.10;99.90;;;;;;5034114;28;19920;-71
2023/01/25 14:19:27;;;;;;;;;;;3.10;99.90;;;;;;5033757;28;20362;-72
2023/01/25 14:22:09;;;;;;;;;;;3.10;99.90;;;;;;5033548;28;19916;-73
2023/01/25 14:24:34;;;;;;;;;;;3.10;99.90;;;;;;5036279;28;19927;-71
2023/01/25 14:27:00;;;;;;;;;;;3.10;99.90;;;;;;5054934;28;20008;-72
2023/01/25 14:29:25;;;;;;;;;;;3.10;99.90;;;;;;5054437;28;19910;-70
2023/01/25 14:31:51;;;;;;;;;;;3.10;99.90;;;;;;5052262;28;20315;-72
2023/01/25 14:34:18;;;;;;;;;;;3.10;99.90;;;;;;5057244;28;19916;-70
2023/01/25 14:36:43;;;;;;;;;;;3.00;99.90;;;;;;5056787;28;19935;-70
2023/01/25 14:39:26;;;;;;;;;;;3.10;99.90;;;;;;5103612;23;20027;-72
2023/01/25 14:41:53;;;;;;;;;;;3.10;99.90;;;;;;5076183;28;20330;-71
2023/01/25 14:44:19;;;;;;;;;;;3.10;99.90;;;;;;5075145;28;19912;-72
2023/01/25 14:46:44;;;;;;;;;;;3.20;99.90;;;;;;5075393;28;19908;-72
2023/01/25 14:49:19;;;;;;;;;;;3.30;99.90;;;;;;5088638;28;19971;-72
2023/01/25 14:51:46;;;;;;;;;;;3.30;99.90;;;;;;5054924;28;20000;-71
2023/01/25 14:54:16;;;;;;;;;;;3.40;99.90;;;;;;5053500;28;19935;-68